sensor_id;sensor_type;location;lat;lon;timestamp;pressure;altitude;pressure_sealevel;temperature;humidity
27294;BME280;14785;52.556;13.430;2023-02-01T00:01:40;100316.81;;;5.53;100.00
27294;BME280;14785;52.556;13.430;2023-02-01T00:04:06;100356.56;;;5.31;100.00
27294;BME280;14785;52.556;13.430;2023-02-01T00:06:31;100337.50;;;5.27;100.00
27294;BME280;14785;52.556;13.430;2023-02-01T00:08:56;100332.75;;;5.21;100.00
27294;BME280;14785;52.556;13.430;2023-02-01T00:11:23;100334.38;;;5.13;100.00
27294;BME280;14785;52.556;13.430;2023-02-01T00:13:48;100334.16;;;5.25;100.00
27294;BME280;14785;52.556;13.430;2023-02-01T00:16:27;100339.41;;;5.16;100.00
27294;BME280;14785;52.556;13.430;2023-02-01T00:19:01;100349.69;;;5.19;100.00
27294;BME280;14785;52.556;13.430;2023-02-01T00:21:27;100346.53;;;5.25;100.00
27294;BME280;14785;52.556;13.430;2023-02-01T00:23:52;100350.31;;;5.11;100.00
27294;BME280;14785;52.556;13.430;2023-02-01T00:26:30;100344.53;;;5.17;100.00
27294;BME280;14785;52.556;13.430;2023-02-01T00:28:56;100349.41;;;5.22;100.00
27294;BME280;14785;52.556;13.430;2023-02-01T00:31:22;100344.91;;;5.33;100.00
27294;BME280;14785;52.556;13.430;2023-02-01T00:33:48;100313.91;;;5.56;100.00
27294;BME280;14785;52.556;13.430;2023-02-01T00:36:14;100363.69;;;5.40;100.00
27294;BME280;14785;52.556;13.430;2023-02-01T00:38:40;100326.31;;;5.35;100.00
27294;BME280;14785;52.556;13.430;2023-02-01T00:41:12;100312.88;;;5.38;100.00
27294;BME280;14785;52.556;13.430;2023-02-01T00:43:40;100320.44;;;5.52;100.00
27294;BME280;14785;52.556;13.430;2023-02-01T00:46:05;100321.88;;;5.65;100.00
27294;BME280;14785;52.556;13.430;2023-02-01T00:48:31;100337.72;;;5.45;100.00
27294;BME280;14785;52.556;13.430;2023-02-01T00:51:08;100342.31;;;5.43;100.00
27294;BME280;14785;52.556;13.430;2023-02-01T00:53:35;100323.25;;;5.69;100.00
27294;BME280;14785;52.556;13.430;2023-02-01T00:56:01;100314.19;;;5.53;100.00
27294;BME280;14785;52.556;13.430;2023-02-01T00:58:27;100327.56;;;5.40;100.00
27294;BME280;14785;52.556;13.430;2023-02-01T01:03:38;100336.41;;;5.30;100.00
27294;BME280;14785;52.556;13.430;2023-02-01T01:06:13;100365.78;;;5.25;100.00
27294;BME280;14785;52.556;13.430;2023-02-01T01:08:40;100343.09;;;5.34;100.00
27294;BME280;14785;52.556;13.430;2023-02-01T01:11:12;100339.66;;;5.13;100.00
27294;BME280;14785;52.556;13.430;2023-02-01T01:13:39;100335.41;;;5.21;100.00
27294;BME280;14785;52.556;13.430;2023-02-01T01:16:06;100350.13;;;5.03;100.00
27294;BME280;14785;52.556;13.430;2023-02-01T01:18:32;100367.38;;;5.07;100.00
27294;BME280;14785;52.556;13.430;2023-02-01T01:20:58;100327.72;;;5.09;100.00
27294;BME280;14785;52.556;13.430;2023-02-01T01:23:24;100337.19;;;5.21;100.00
27294;BME280;14785;52.556;13.430;2023-02-01T01:25:49;100335.53;;;5.20;100.00
27294;BME280;14785;52.556;13.430;2023-02-01T01:28:15;100303.84;;;5.10;100.00
27294;BME280;14785;52.556;13.430;2023-02-01T01:30:40;100327.75;;;5.18;100.00
27294;BME280;14785;52.556;13.430;2023-02-01T01:33:06;100329.72;;;5.26;100.00
27294;BME280;14785;52.556;13.430;2023-02-01T01:35:32;100305.34;;;5.33;100.00
27294;BME280;14785;52.556;13.430;2023-02-01T01:37:58;100300.38;;;5.40;100.00
27294;BME280;14785;52.556;13.430;2023-02-01T01:40:25;100277.25;;;5.23;100.00
27294;BME280;14785;52.556;13.430;2023-02-01T01:42:52;100284.38;;;5.32;100.00
27294;BME280;14785;52.556;13.430;2023-02-01T01:45:29;100303.38;;;5.26;100.00
27294;BME280;14785;52.556;13.430;2023-02-01T01:48:12;100302.25;;;5.28;100.00
27294;BME280;14785;52.556;13.430;2023-02-01T01:50:56;100290.97;;;5.17;100.00
27294;BME280;14785;52.556;13.430;2023-02-01T01:53:34;100287.59;;;5.35;100.00
27294;BME280;14785;52.556;13.430;2023-02-01T01:56:02;100277.84;;;5.26;100.00
27294;BME280;14785;52.556;13.430;2023-02-01T01:58:29;100285.97;;;5.44;100.00
27294;BME280;14785;52.556;13.430;2023-02-01T02:00:57;100279.28;;;5.40;100.00
27294;BME280;14785;52.556;13.430;2023-02-01T02:03:32;100287.88;;;5.42;100.00
27294;BME280;14785;52.556;13.430;2023-02-01T02:06:00;100283.72;;;5.39;100.00
27294;BME280;14785;52.556;13.430;2023-02-01T02:08:27;100273.22;;;5.49;100.00
27294;BME280;14785;52.556;13.430;2023-02-01T02:10:53;100277.72;;;5.37;100.00
27294;BME280;14785;52.556;13.430;2023-02-01T02:13:29;100291.44;;;5.31;100.00
27294;BME280;14785;52.556;13.430;2023-02-01T02:35:38;100249.75;;;5.46;100.00
27294;BME280;14785;52.556;13.430;2023-02-01T02:43:23;100265.66;;;5.35;100.00
27294;BME280;14785;52.556;13.430;2023-02-01T02:46:34;100255.44;;;5.51;100.00
27294;BME280;14785;52.556;13.430;2023-02-01T02:49:27;100264.59;;;5.47;100.00
27294;BME280;14785;52.556;13.430;2023-02-01T02:52:03;100262.88;;;5.36;100.00
27294;BME280;14785;52.556;13.430;2023-02-01T02:54:50;100252.66;;;5.43;100.00
27294;BME280;14785;52.556;13.430;2023-02-01T03:00:07;100282.53;;;5.53;100.00
27294;BME280;14785;52.556;13.430;2023-02-01T03:02:53;100269.69;;;5.39;100.00
27294;BME280;14785;52.556;13.430;2023-02-01T03:05:42;100257.63;;;5.36;100.00
27294;BME280;14785;52.556;13.430;2023-02-01T03:13:31;100254.84;;;5.38;100.00
27294;BME280;14785;52.556;13.430;2023-02-01T03:18:52;100220.47;;;5.49;100.00
27294;BME280;14785;52.556;13.430;2023-02-01T03:21:29;100250.97;;;5.42;100.00
27294;BME280;14785;52.556;13.430;2023-02-01T03:24:01;100253.19;;;5.37;100.00
27294;BME280;14785;52.556;13.430;2023-02-01T03:26:29;100226.81;;;5.37;100.00
27294;BME280;14785;52.556;13.430;2023-02-01T03:29:03;100217.66;;;5.41;100.00
27294;BME280;14785;52.556;13.430;2023-02-01T03:31:30;100246.34;;;5.34;100.00
27294;BME280;14785;52.556;13.430;2023-02-01T03:33:57;100217.13;;;5.47;100.00
27294;BME280;14785;52.556;13.430;2023-02-01T03:36:50;100235.13;;;5.42;100.00
27294;BME280;14785;52.556;13.430;2023-02-01T03:39:29;100213.78;;;5.45;100.00
27294;BME280;14785;52.556;13.430;2023-02-01T03:42:00;100211.59;;;5.50;100.00
27294;BME280;14785;52.556;13.430;2023-02-01T03:44:38;100198.41;;;5.50;100.00
27294;BME280;14785;52.556;13.430;2023-02-01T03:47:12;100201.47;;;5.55;100.00
27294;BME280;14785;52.556;13.430;2023-02-01T03:49:43;100208.94;;;5.50;100.00
27294;BME280;14785;52.556;13.430;2023-02-01T03:52:22;100194.09;;;5.49;100.00
27294;BME280;14785;52.556;13.430;2023-02-01T03:54:51;100184.66;;;5.56;100.00
27294;BME280;14785;52.556;13.430;2023-02-01T03:57:22;100185.75;;;5.44;100.00
27294;BME280;14785;52.556;13.430;2023-02-01T03:59:49;100183.53;;;5.49;100.00
27294;BME280;14785;52.556;13.430;2023-02-01T04:02:14;100194.94;;;5.59;100.00
27294;BME280;14785;52.556;13.430;2023-02-01T04:04:40;100172.19;;;5.58;100.00
27294;BME280;14785;52.556;13.430;2023-02-01T04:07:05;100176.22;;;5.71;100.00
27294;BME280;14785;52.556;13.430;2023-02-01T04:09:31;100189.84;;;5.67;100.00
27294;BME280;14785;52.556;13.430;2023-02-01T04:11:57;100187.03;;;5.59;100.00
27294;BME280;14785;52.556;13.430;2023-02-01T04:14:22;100192.88;;;5.72;100.00
27294;BME280;14785;52.556;13.430;2023-02-01T04:16:47;100205.78;;;5.65;100.00
27294;BME280;14785;52.556;13.430;2023-02-01T04:19:13;100185.84;;;6.01;100.00
27294;BME280;14785;52.556;13.430;2023-02-01T04:21:38;100189.41;;;5.81;100.00
27294;BME280;14785;52.556;13.430;2023-02-01T04:24:04;100188.03;;;5.77;100.00
27294;BME280;14785;52.556;13.430;2023-02-01T04:26:30;100194.56;;;5.73;100.00
27294;BME280;14785;52.556;13.430;2023-02-01T04:28:55;100216.13;;;5.88;100.00
27294;BME280;14785;52.556;13.430;2023-02-01T04:31:21;100188.34;;;5.83;100.00
27294;BME280;14785;52.556;13.430;2023-02-01T04:33:54;100218.31;;;5.73;100.00
27294;BME280;14785;52.556;13.430;2023-02-01T04:36:21;100197.47;;;5.79;100.00
27294;BME280;14785;52.556;13.430;2023-02-01T04:38:50;100180.03;;;5.88;100.00
27294;BME280;14785;52.556;13.430;2023-02-01T04:41:16;100201.69;;;6.01;100.00
27294;BME280;14785;52.556;13.430;2023-02-01T04:43:48;100209.19;;;5.87;100.00
27294;BME280;14785;52.556;13.430;2023-02-01T04:46:15;100175.28;;;6.01;100.00
27294;BME280;14785;52.556;13.430;2023-02-01T04:48:41;100178.91;;;6.10;100.00
27294;BME280;14785;52.556;13.430;2023-02-01T04:51:07;100179.47;;;5.94;100.00
27294;BME280;14785;52.556;13.430;2023-02-01T04:53:32;100174.88;;;5.96;100.00
27294;BME280;14785;52.556;13.430;2023-02-01T04:55:58;100176.56;;;5.97;100.00
27294;BME280;14785;52.556;13.430;2023-02-01T04:58:24;100165.28;;;5.95;100.00
27294;BME280;14785;52.556;13.430;2023-02-01T05:00:49;100170.00;;;6.01;100.00
27294;BME280;14785;52.556;13.430;2023-02-01T05:03:15;100166.97;;;6.15;100.00
27294;BME280;14785;52.556;13.430;2023-02-01T05:05:41;100158.34;;;6.13;100.00
27294;BME280;14785;52.556;13.430;2023-02-01T05:08:07;100150.56;;;6.12;100.00
27294;BME280;14785;52.556;13.430;2023-02-01T05:10:32;100151.13;;;6.06;100.00
27294;BME280;14785;52.556;13.430;2023-02-01T05:12:58;100156.41;;;6.15;100.00
27294;BME280;14785;52.556;13.430;2023-02-01T05:15:42;100156.97;;;6.09;100.00
27294;BME280;14785;52.556;13.430;2023-02-01T05:18:07;100144.56;;;6.19;100.00
27294;BME280;14785;52.556;13.430;2023-02-01T05:20:33;100148.88;;;6.20;100.00
27294;BME280;14785;52.556;13.430;2023-02-01T05:22:58;100137.50;;;6.10;100.00
27294;BME280;14785;52.556;13.430;2023-02-01T05:25:25;100145.53;;;6.18;100.00
27294;BME280;14785;52.556;13.430;2023-02-01T05:27:51;100140.56;;;6.15;100.00
27294;BME280;14785;52.556;13.430;2023-02-01T05:30:16;100138.72;;;6.16;100.00
27294;BME280;14785;52.556;13.430;2023-02-01T05:32:42;100135.28;;;6.15;100.00
27294;BME280;14785;52.556;13.430;2023-02-01T05:35:08;100135.94;;;6.17;100.00
27294;BME280;14785;52.556;13.430;2023-02-01T05:37:34;100137.19;;;6.32;100.00
27294;BME280;14785;52.556;13.430;2023-02-01T05:39:59;100138.31;;;6.20;100.00
27294;BME280;14785;52.556;13.430;2023-02-01T05:42:25;100127.19;;;6.26;100.00
27294;BME280;14785;52.556;13.430;2023-02-01T05:44:51;100142.22;;;6.16;100.00
27294;BME280;14785;52.556;13.430;2023-02-01T05:47:16;100168.63;;;6.16;100.00
27294;BME280;14785;52.556;13.430;2023-02-01T05:49:42;100130.00;;;6.15;100.00
27294;BME280;14785;52.556;13.430;2023-02-01T05:52:07;100128.56;;;6.30;100.00
27294;BME280;14785;52.556;13.430;2023-02-01T05:54:33;100119.09;;;6.37;100.00
27294;BME280;14785;52.556;13.430;2023-02-01T05:56:58;100115.78;;;6.26;100.00
27294;BME280;14785;52.556;13.430;2023-02-01T05:59:24;100093.50;;;6.47;100.00
27294;BME280;14785;52.556;13.430;2023-02-01T06:01:49;100134.44;;;6.15;100.00
27294;BME280;14785;52.556;13.430;2023-02-01T06:04:14;100113.97;;;6.26;100.00
27294;BME280;14785;52.556;13.430;2023-02-01T06:06:40;100104.06;;;6.47;100.00
27294;BME280;14785;52.556;13.430;2023-02-01T06:09:05;100115.81;;;6.16;100.00
27294;BME280;14785;52.556;13.430;2023-02-01T06:11:31;100131.66;;;6.16;100.00
27294;BME280;14785;52.556;13.430;2023-02-01T06:13:56;100101.19;;;6.31;100.00
27294;BME280;14785;52.556;13.430;2023-02-01T06:16:22;100115.75;;;6.35;100.00
27294;BME280;14785;52.556;13.430;2023-02-01T06:18:48;100107.47;;;6.11;100.00
27294;BME280;14785;52.556;13.430;2023-02-01T06:21:13;100116.81;;;5.96;100.00
27294;BME280;14785;52.556;13.430;2023-02-01T06:23:40;100112.78;;;5.92;100.00
27294;BME280;14785;52.556;13.430;2023-02-01T06:26:07;100129.75;;;5.90;100.00
27294;BME280;14785;52.556;13.430;2023-02-01T06:28:34;100129.69;;;5.80;100.00
27294;BME280;14785;52.556;13.430;2023-02-01T06:31:03;100130.16;;;5.85;100.00
27294;BME280;14785;52.556;13.430;2023-02-01T06:33:31;100118.31;;;5.70;100.00
27294;BME280;14785;52.556;13.430;2023-02-01T06:35:58;100125.25;;;5.80;100.00
27294;BME280;14785;52.556;13.430;2023-02-01T06:38:26;100158.28;;;5.75;100.00
27294;BME280;14785;52.556;13.430;2023-02-01T06:40:53;100120.25;;;5.68;100.00
27294;BME280;14785;52.556;13.430;2023-02-01T06:43:19;100137.34;;;5.64;100.00
27294;BME280;14785;52.556;13.430;2023-02-01T06:45:44;100133.00;;;5.63;100.00
27294;BME280;14785;52.556;13.430;2023-02-01T06:48:10;100119.97;;;5.71;100.00
27294;BME280;14785;52.556;13.430;2023-02-01T06:50:35;100122.75;;;5.79;100.00
27294;BME280;14785;52.556;13.430;2023-02-01T06:53:00;100109.69;;;5.68;100.00
27294;BME280;14785;52.556;13.430;2023-02-01T06:55:26;100105.56;;;5.84;100.00
27294;BME280;14785;52.556;13.430;2023-02-01T06:57:55;100097.88;;;5.72;100.00
27294;BME280;14785;52.556;13.430;2023-02-01T07:00:24;100097.78;;;5.64;100.00
27294;BME280;14785;52.556;13.430;2023-02-01T07:02:50;100090.25;;;5.69;100.00
27294;BME280;14785;52.556;13.430;2023-02-01T07:05:16;100093.03;;;5.77;100.00
27294;BME280;14785;52.556;13.430;2023-02-01T07:07:41;100088.03;;;5.74;100.00
27294;BME280;14785;52.556;13.430;2023-02-01T07:10:08;100081.63;;;5.76;100.00
27294;BME280;14785;52.556;13.430;2023-02-01T07:12:33;100084.41;;;5.75;100.00
27294;BME280;14785;52.556;13.430;2023-02-01T07:14:58;100067.91;;;5.92;100.00
27294;BME280;14785;52.556;13.430;2023-02-01T07:17:24;100061.94;;;5.80;100.00
27294;BME280;14785;52.556;13.430;2023-02-01T07:19:49;100084.41;;;5.75;100.00
27294;BME280;14785;52.556;13.430;2023-02-01T07:22:18;100070.28;;;5.66;100.00
27294;BME280;14785;52.556;13.430;2023-02-01T07:24:43;100076.66;;;5.54;100.00
27294;BME280;14785;52.556;13.430;2023-02-01T07:27:09;100100.97;;;5.58;100.00
27294;BME280;14785;52.556;13.430;2023-02-01T07:29:34;100072.63;;;5.60;100.00
27294;BME280;14785;52.556;13.430;2023-02-01T07:32:00;100071.66;;;5.61;100.00
27294;BME280;14785;52.556;13.430;2023-02-01T07:34:27;100070.41;;;5.55;100.00
27294;BME280;14785;52.556;13.430;2023-02-01T07:36:53;100065.25;;;5.54;100.00
27294;BME280;14785;52.556;13.430;2023-02-01T07:39:18;100059.03;;;5.55;100.00
27294;BME280;14785;52.556;13.430;2023-02-01T07:41:43;100090.53;;;5.56;100.00
27294;BME280;14785;52.556;13.430;2023-02-01T07:44:09;100073.31;;;5.62;100.00
27294;BME280;14785;52.556;13.430;2023-02-01T07:46:34;100047.22;;;5.59;100.00
27294;BME280;14785;52.556;13.430;2023-02-01T07:49:01;100052.78;;;5.56;100.00
27294;BME280;14785;52.556;13.430;2023-02-01T07:51:26;100044.72;;;5.48;100.00
27294;BME280;14785;52.556;13.430;2023-02-01T07:53:51;100062.06;;;5.22;100.00
27294;BME280;14785;52.556;13.430;2023-02-01T07:56:19;100107.41;;;5.16;100.00
27294;BME280;14785;52.556;13.430;2023-02-01T07:58:48;100085.06;;;5.01;100.00
27294;BME280;14785;52.556;13.430;2023-02-01T08:01:19;100083.00;;;5.04;100.00
27294;BME280;14785;52.556;13.430;2023-02-01T08:03:51;100111.22;;;4.93;100.00
27294;BME280;14785;52.556;13.430;2023-02-01T08:06:17;100093.78;;;4.62;100.00
27294;BME280;14785;52.556;13.430;2023-02-01T08:08:45;100119.59;;;4.68;100.00
27294;BME280;14785;52.556;13.430;2023-02-01T08:11:12;100136.41;;;4.46;100.00
27294;BME280;14785;52.556;13.430;2023-02-01T08:13:37;100101.66;;;4.52;100.00
27294;BME280;14785;52.556;13.430;2023-02-01T08:16:05;100095.03;;;4.58;100.00
27294;BME280;14785;52.556;13.430;2023-02-01T08:18:31;100108.28;;;4.77;100.00
27294;BME280;14785;52.556;13.430;2023-02-01T08:21:03;100118.09;;;4.75;100.00
27294;BME280;14785;52.556;13.430;2023-02-01T08:23:30;100132.28;;;4.33;100.00
27294;BME280;14785;52.556;13.430;2023-02-01T08:26:25;100121.84;;;4.42;100.00
27294;BME280;14785;52.556;13.430;2023-02-01T08:29:01;100144.81;;;4.40;100.00
27294;BME280;14785;52.556;13.430;2023-02-01T08:31:29;100128.34;;;4.68;100.00
27294;BME280;14785;52.556;13.430;2023-02-01T08:33:57;100132.59;;;4.60;100.00
27294;BME280;14785;52.556;13.430;2023-02-01T08:36:24;100143.84;;;4.62;100.00
27294;BME280;14785;52.556;13.430;2023-02-01T08:38:50;100148.75;;;4.76;100.00
27294;BME280;14785;52.556;13.430;2023-02-01T08:41:22;100171.41;;;4.58;100.00
27294;BME280;14785;52.556;13.430;2023-02-01T08:43:47;100171.28;;;4.39;100.00
27294;BME280;14785;52.556;13.430;2023-02-01T08:46:13;100184.69;;;4.36;100.00
27294;BME280;14785;52.556;13.430;2023-02-01T08:48:39;100174.13;;;4.26;100.00
27294;BME280;14785;52.556;13.430;2023-02-01T08:51:07;100158.81;;;4.41;100.00
27294;BME280;14785;52.556;13.430;2023-02-01T08:53:35;100163.75;;;4.55;100.00
27294;BME280;14785;52.556;13.430;2023-02-01T08:56:01;100172.25;;;4.38;100.00
27294;BME280;14785;52.556;13.430;2023-02-01T08:58:26;100165.31;;;4.37;100.00
27294;BME280;14785;52.556;13.430;2023-02-01T09:00:52;100176.28;;;4.42;100.00
27294;BME280;14785;52.556;13.430;2023-02-01T09:03:18;100170.59;;;4.37;100.00
27294;BME280;14785;52.556;13.430;2023-02-01T09:05:43;100208.34;;;4.47;100.00
27294;BME280;14785;52.556;13.430;2023-02-01T09:08:10;100184.84;;;4.55;100.00
27294;BME280;14785;52.556;13.430;2023-02-01T09:10:37;100201.41;;;4.46;100.00
27294;BME280;14785;52.556;13.430;2023-02-01T09:13:03;100194.78;;;4.51;100.00
27294;BME280;14785;52.556;13.430;2023-02-01T09:15:28;100198.28;;;4.82;100.00
27294;BME280;14785;52.556;13.430;2023-02-01T09:17:54;100182.38;;;4.63;100.00
27294;BME280;14785;52.556;13.430;2023-02-01T09:20:19;100190.03;;;4.96;100.00
27294;BME280;14785;52.556;13.430;2023-02-01T09:22:50;100198.56;;;4.79;100.00
27294;BME280;14785;52.556;13.430;2023-02-01T09:25:15;100189.75;;;4.99;100.00
27294;BME280;14785;52.556;13.430;2023-02-01T09:27:40;100208.72;;;4.93;100.00
27294;BME280;14785;52.556;13.430;2023-02-01T09:30:06;100247.38;;;4.83;100.00
27294;BME280;14785;52.556;13.430;2023-02-01T09:32:32;100196.72;;;5.00;100.00
27294;BME280;14785;52.556;13.430;2023-02-01T09:34:57;100209.34;;;4.76;100.00
27294;BME280;14785;52.556;13.430;2023-02-01T09:37:23;100204.78;;;5.08;100.00
27294;BME280;14785;52.556;13.430;2023-02-01T09:39:49;100206.75;;;5.15;100.00
27294;BME280;14785;52.556;13.430;2023-02-01T09:47:57;100222.69;;;5.14;100.00
27294;BME280;14785;52.556;13.430;2023-02-01T09:50:47;100216.19;;;5.18;100.00
27294;BME280;14785;52.556;13.430;2023-02-01T09:53:32;100241.00;;;4.85;100.00
27294;BME280;14785;52.556;13.430;2023-02-01T09:56:07;100228.69;;;5.16;100.00
27294;BME280;14785;52.556;13.430;2023-02-01T10:01:04;100220.84;;;5.05;100.00
27294;BME280;14785;52.556;13.430;2023-02-01T10:03:33;100233.63;;;5.00;100.00
27294;BME280;14785;52.556;13.430;2023-02-01T10:22:46;100225.38;;;4.93;100.00
27294;BME280;14785;52.556;13.430;2023-02-01T10:27:56;100248.16;;;4.74;100.00
27294;BME280;14785;52.556;13.430;2023-02-01T10:30:31;100236.63;;;4.95;100.00
27294;BME280;14785;52.556;13.430;2023-02-01T10:33:27;100253.53;;;4.93;100.00
27294;BME280;14785;52.556;13.430;2023-02-01T10:38:32;100228.16;;;5.31;100.00
27294;BME280;14785;52.556;13.430;2023-02-01T10:41:04;100240.09;;;5.26;100.00
27294;BME280;14785;52.556;13.430;2023-02-01T10:43:35;100230.34;;;5.17;100.00
27294;BME280;14785;52.556;13.430;2023-02-01T10:46:01;100227.44;;;5.20;100.00
27294;BME280;14785;52.556;13.430;2023-02-01T10:48:26;100232.19;;;5.26;100.00
27294;BME280;14785;52.556;13.430;2023-02-01T10:56:23;100269.16;;;4.85;100.00
27294;BME280;14785;52.556;13.430;2023-02-01T10:58:49;100253.25;;;4.96;100.00
27294;BME280;14785;52.556;13.430;2023-02-01T11:01:37;100241.59;;;4.89;100.00
27294;BME280;14785;52.556;13.430;2023-02-01T11:04:05;100236.84;;;4.83;100.00
27294;BME280;14785;52.556;13.430;2023-02-01T11:06:36;100224.47;;;5.04;100.00
27294;BME280;14785;52.556;13.430;2023-02-01T11:11:31;100216.81;;;5.01;100.00
27294;BME280;14785;52.556;13.430;2023-02-01T11:13:57;100211.56;;;5.01;100.00
27294;BME280;14785;52.556;13.430;2023-02-01T11:16:35;100235.53;;;4.98;100.00
27294;BME280;14785;52.556;13.430;2023-02-01T11:19:02;100216.75;;;5.12;100.00
27294;BME280;14785;52.556;13.430;2023-02-01T11:21:27;100215.97;;;5.30;100.00
27294;BME280;14785;52.556;13.430;2023-02-01T11:23:53;100223.56;;;5.24;100.00
27294;BME280;14785;52.556;13.430;2023-02-01T11:26:24;100204.03;;;5.36;100.00
27294;BME280;14785;52.556;13.430;2023-02-01T11:29:03;100212.44;;;5.60;100.00
27294;BME280;14785;52.556;13.430;2023-02-01T11:31:30;100200.50;;;5.75;100.00
27294;BME280;14785;52.556;13.430;2023-02-01T11:34:18;100203.69;;;5.69;100.00
27294;BME280;14785;52.556;13.430;2023-02-01T11:36:47;100188.03;;;5.77;100.00
27294;BME280;14785;52.556;13.430;2023-02-01T11:45:16;100161.56;;;5.88;100.00
27294;BME280;14785;52.556;13.430;2023-02-01T11:47:41;100154.59;;;6.06;100.00
27294;BME280;14785;52.556;13.430;2023-02-01T11:50:21;100158.22;;;5.86;100.00
27294;BME280;14785;52.556;13.430;2023-02-01T11:53:12;100156.13;;;5.99;100.00
27294;BME280;14785;52.556;13.430;2023-02-01T12:03:31;100124.34;;;6.47;100.00
27294;BME280;14785;52.556;13.430;2023-02-01T12:22:40;100067.88;;;6.84;100.00
27294;BME280;14785;52.556;13.430;2023-02-01T12:36:50;100024.34;;;6.88;100.00
27294;BME280;14785;52.556;13.430;2023-02-01T12:41:38;100026.09;;;6.70;100.00
27294;BME280;14785;52.556;13.430;2023-02-01T12:52:02;99996.88;;;6.72;100.00
27294;BME280;14785;52.556;13.430;2023-02-01T12:54:41;100033.63;;;6.65;100.00
27294;BME280;14785;52.556;13.430;2023-02-01T12:57:32;99999.38;;;6.73;100.00
27294;BME280;14785;52.556;13.430;2023-02-01T13:00:38;99989.56;;;6.83;100.00
27294;BME280;14785;52.556;13.430;2023-02-01T13:03:17;99987.38;;;6.96;100.00
27294;BME280;14785;52.556;13.430;2023-02-01T13:05:57;100001.31;;;6.98;100.00
27294;BME280;14785;52.556;13.430;2023-02-01T13:08:43;99960.50;;;7.01;100.00
27294;BME280;14785;52.556;13.430;2023-02-01T13:13:51;100032.97;;;7.25;100.00
27294;BME280;14785;52.556;13.430;2023-02-01T13:18:59;100034.72;;;5.80;100.00
27294;BME280;14785;52.556;13.430;2023-02-01T13:21:29;100028.88;;;5.19;100.00
27294;BME280;14785;52.556;13.430;2023-02-01T13:23:57;100048.63;;;5.25;100.00
27294;BME280;14785;52.556;13.430;2023-02-01T13:26:23;100036.25;;;5.35;100.00
27294;BME280;14785;52.556;13.430;2023-02-01T13:29:06;100038.88;;;5.54;100.00
27294;BME280;14785;52.556;13.430;2023-02-01T13:42:28;99979.59;;;6.77;100.00
27294;BME280;14785;52.556;13.430;2023-02-01T13:45:01;99979.56;;;7.04;100.00
27294;BME280;14785;52.556;13.430;2023-02-01T13:47:40;99978.69;;;7.21;100.00
27294;BME280;14785;52.556;13.430;2023-02-01T13:50:37;99989.13;;;7.05;100.00
27294;BME280;14785;52.556;13.430;2023-02-01T13:55:43;99961.34;;;7.01;100.00
27294;BME280;14785;52.556;13.430;2023-02-01T13:58:19;99936.84;;;7.34;100.00
27294;BME280;14785;52.556;13.430;2023-02-01T14:00:48;99938.97;;;7.13;100.00
27294;BME280;14785;52.556;13.430;2023-02-01T14:03:16;99936.38;;;7.21;100.00
27294;BME280;14785;52.556;13.430;2023-02-01T14:08:21;99940.16;;;7.36;100.00
27294;BME280;14785;52.556;13.430;2023-02-01T14:10:48;99948.03;;;7.28;100.00
27294;BME280;14785;52.556;13.430;2023-02-01T14:18:48;99987.53;;;6.23;100.00
27294;BME280;14785;52.556;13.430;2023-02-01T14:21:34;99933.19;;;6.21;100.00
27294;BME280;14785;52.556;13.430;2023-02-01T14:26:45;99955.94;;;6.31;100.00
27294;BME280;14785;52.556;13.430;2023-02-01T14:42:24;99927.66;;;6.41;100.00
27294;BME280;14785;52.556;13.430;2023-02-01T14:44:52;99925.63;;;6.53;100.00
27294;BME280;14785;52.556;13.430;2023-02-01T14:49:57;99920.16;;;6.64;100.00
27294;BME280;14785;52.556;13.430;2023-02-01T14:52:44;99919.09;;;6.74;100.00
27294;BME280;14785;52.556;13.430;2023-02-01T14:55:21;99911.47;;;6.71;100.00
27294;BME280;14785;52.556;13.430;2023-02-01T14:57:50;99900.31;;;6.77;100.00
27294;BME280;14785;52.556;13.430;2023-02-01T15:00:23;99889.75;;;6.77;100.00
27294;BME280;14785;52.556;13.430;2023-02-01T15:02:53;99909.13;;;6.68;100.00
27294;BME280;14785;52.556;13.430;2023-02-01T15:07:54;99861.66;;;6.76;100.00
27294;BME280;14785;52.556;13.430;2023-02-01T15:10:21;99871.84;;;6.71;100.00
27294;BME280;14785;52.556;13.430;2023-02-01T15:12:47;99876.13;;;6.72;100.00
27294;BME280;14785;52.556;13.430;2023-02-01T15:15:17;99897.63;;;6.42;100.00
27294;BME280;14785;52.556;13.430;2023-02-01T15:17:55;99918.44;;;6.28;100.00
27294;BME280;14785;52.556;13.430;2023-02-01T15:20:26;99889.28;;;6.20;100.00
27294;BME280;14785;52.556;13.430;2023-02-01T15:23:01;99897.16;;;6.02;100.00
27294;BME280;14785;52.556;13.430;2023-02-01T15:25:35;99948.34;;;5.63;100.00
27294;BME280;14785;52.556;13.430;2023-02-01T15:28:02;99895.88;;;5.60;100.00
27294;BME280;14785;52.556;13.430;2023-02-01T15:30:29;99928.00;;;5.36;100.00
27294;BME280;14785;52.556;13.430;2023-02-01T15:35:53;99920.81;;;5.19;100.00
27294;BME280;14785;52.556;13.430;2023-02-01T15:41:15;99949.94;;;4.99;100.00
27294;BME280;14785;52.556;13.430;2023-02-01T15:43:47;99933.03;;;4.92;100.00
27294;BME280;14785;52.556;13.430;2023-02-01T15:46:19;99960.88;;;4.66;100.00
27294;BME280;14785;52.556;13.430;2023-02-01T15:48:49;99945.94;;;4.76;100.00
27294;BME280;14785;52.556;13.430;2023-02-01T15:51:21;99954.38;;;4.70;100.00
27294;BME280;14785;52.556;13.430;2023-02-01T15:53:56;99942.56;;;4.55;100.00
27294;BME280;14785;52.556;13.430;2023-02-01T15:56:25;99973.81;;;4.39;100.00